sensor_id;sensor_type;location;lat;lon;timestamp;temperature;humidity
27492;DHT22;14927;51.210;6.838;2022-07-03T00:02:21;25.70;39.20
27492;DHT22;14927;51.210;6.838;2022-07-03T00:05:06;25.70;39.50
27492;DHT22;14927;51.210;6.838;2022-07-03T00:07:51;25.60;39.70
27492;DHT22;14927;51.210;6.838;2022-07-03T00:10:35;25.60;39.90
27492;DHT22;14927;51.210;6.838;2022-07-03T00:13:20;25.50;40.10
27492;DHT22;14927;51.210;6.838;2022-07-03T00:16:04;25.40;40.30
27492;DHT22;14927;51.210;6.838;2022-07-03T00:18:49;25.30;40.40
27492;DHT22;14927;51.210;6.838;2022-07-03T00:21:36;25.30;40.50
27492;DHT22;14927;51.210;6.838;2022-07-03T00:25:02;25.20;40.90
27492;DHT22;14927;51.210;6.838;2022-07-03T00:27:49;25.10;41.10
27492;DHT22;14927;51.210;6.838;2022-07-03T00:30:34;25.10;41.00
27492;DHT22;14927;51.210;6.838;2022-07-03T00:33:20;25.00;41.30
27492;DHT22;14927;51.210;6.838;2022-07-03T00:36:06;25.00;41.50
27492;DHT22;14927;51.210;6.838;2022-07-03T00:38:50;24.90;41.60
27492;DHT22;14927;51.210;6.838;2022-07-03T00:41:35;24.90;41.90
27492;DHT22;14927;51.210;6.838;2022-07-03T00:44:20;24.80;42.10
27492;DHT22;14927;51.210;6.838;2022-07-03T00:47:06;24.80;41.90
27492;DHT22;14927;51.210;6.838;2022-07-03T00:49:55;24.70;42.20
27492;DHT22;14927;51.210;6.838;2022-07-03T00:52:49;24.70;42.50
27492;DHT22;14927;51.210;6.838;2022-07-03T00:55:35;24.70;42.90
27492;DHT22;14927;51.210;6.838;2022-07-03T00:58:21;24.60;42.70
27492;DHT22;14927;51.210;6.838;2022-07-03T01:01:06;24.60;42.90
27492;DHT22;14927;51.210;6.838;2022-07-03T01:04:03;24.60;43.20
27492;DHT22;14927;51.210;6.838;2022-07-03T01:07:02;24.50;43.70
27492;DHT22;14927;51.210;6.838;2022-07-03T01:10:00;24.40;44.00
27492;DHT22;14927;51.210;6.838;2022-07-03T01:13:03;24.40;43.90
27492;DHT22;14927;51.210;6.838;2022-07-03T01:19:10;24.30;44.10
27492;DHT22;14927;51.210;6.838;2022-07-03T01:25:44;24.20;44.70
27492;DHT22;14927;51.210;6.838;2022-07-03T01:28:32;24.20;44.90
27492;DHT22;14927;51.210;6.838;2022-07-03T01:31:21;24.10;44.70
27492;DHT22;14927;51.210;6.838;2022-07-03T01:34:12;24.10;45.00
27492;DHT22;14927;51.210;6.838;2022-07-03T01:37:00;24.00;44.90
27492;DHT22;14927;51.210;6.838;2022-07-03T01:39:51;24.00;44.60
27492;DHT22;14927;51.210;6.838;2022-07-03T01:42:36;24.00;44.90
27492;DHT22;14927;51.210;6.838;2022-07-03T01:45:23;23.90;44.70
27492;DHT22;14927;51.210;6.838;2022-07-03T01:48:13;23.90;44.70
27492;DHT22;14927;51.210;6.838;2022-07-03T01:50:59;23.80;44.80
27492;DHT22;14927;51.210;6.838;2022-07-03T01:53:46;23.80;45.00
27492;DHT22;14927;51.210;6.838;2022-07-03T02:00:07;23.70;45.60
27492;DHT22;14927;51.210;6.838;2022-07-03T02:03:00;23.70;45.20
27492;DHT22;14927;51.210;6.838;2022-07-03T02:05:48;23.70;45.80
27492;DHT22;14927;51.210;6.838;2022-07-03T02:11:37;23.60;46.20
27492;DHT22;14927;51.210;6.838;2022-07-03T02:14:32;23.60;46.00
27492;DHT22;14927;51.210;6.838;2022-07-03T02:17:18;23.50;46.30
27492;DHT22;14927;51.210;6.838;2022-07-03T02:20:07;23.50;46.30
27492;DHT22;14927;51.210;6.838;2022-07-03T02:22:58;23.50;46.50
27492;DHT22;14927;51.210;6.838;2022-07-03T02:25:44;23.50;46.60
27492;DHT22;14927;51.210;6.838;2022-07-03T02:31:23;23.50;46.60
27492;DHT22;14927;51.210;6.838;2022-07-03T02:34:15;23.40;47.00
27492;DHT22;14927;51.210;6.838;2022-07-03T02:37:19;23.40;47.50
27492;DHT22;14927;51.210;6.838;2022-07-03T02:43:30;23.30;48.30
27492;DHT22;14927;51.210;6.838;2022-07-03T02:46:38;23.30;47.80
27492;DHT22;14927;51.210;6.838;2022-07-03T02:55:42;23.20;48.90
27492;DHT22;14927;51.210;6.838;2022-07-03T03:01:53;23.10;49.00
27492;DHT22;14927;51.210;6.838;2022-07-03T03:04:44;23.10;49.50
27492;DHT22;14927;51.210;6.838;2022-07-03T03:10:48;22.90;49.90
27492;DHT22;14927;51.210;6.838;2022-07-03T03:13:33;22.90;49.40
27492;DHT22;14927;51.210;6.838;2022-07-03T03:16:18;22.80;49.70
27492;DHT22;14927;51.210;6.838;2022-07-03T03:19:02;22.80;49.90
27492;DHT22;14927;51.210;6.838;2022-07-03T03:22:29;22.80;50.10
27492;DHT22;14927;51.210;6.838;2022-07-03T03:25:12;22.70;50.90
27492;DHT22;14927;51.210;6.838;2022-07-03T03:27:58;22.70;50.20
27492;DHT22;14927;51.210;6.838;2022-07-03T03:30:43;22.60;50.80
27492;DHT22;14927;51.210;6.838;2022-07-03T03:33:28;22.60;50.80
27492;DHT22;14927;51.210;6.838;2022-07-03T03:36:15;22.60;51.00
27492;DHT22;14927;51.210;6.838;2022-07-03T03:39:01;22.50;51.10
27492;DHT22;14927;51.210;6.838;2022-07-03T03:41:46;22.40;51.10
27492;DHT22;14927;51.210;6.838;2022-07-03T03:44:30;22.40;51.30
27492;DHT22;14927;51.210;6.838;2022-07-03T03:47:14;22.40;51.30
27492;DHT22;14927;51.210;6.838;2022-07-03T03:50:00;22.40;51.50
27492;DHT22;14927;51.210;6.838;2022-07-03T03:52:44;22.30;51.60
27492;DHT22;14927;51.210;6.838;2022-07-03T03:55:29;22.30;51.60
27492;DHT22;14927;51.210;6.838;2022-07-03T03:58:15;22.30;51.80
27492;DHT22;14927;51.210;6.838;2022-07-03T04:01:02;22.20;52.00
27492;DHT22;14927;51.210;6.838;2022-07-03T04:03:47;22.20;52.30
27492;DHT22;14927;51.210;6.838;2022-07-03T04:06:32;22.20;52.40
27492;DHT22;14927;51.210;6.838;2022-07-03T04:09:16;22.20;52.60
27492;DHT22;14927;51.210;6.838;2022-07-03T04:12:02;22.10;52.70
27492;DHT22;14927;51.210;6.838;2022-07-03T04:14:46;22.10;53.10
27492;DHT22;14927;51.210;6.838;2022-07-03T04:17:31;22.10;53.30
27492;DHT22;14927;51.210;6.838;2022-07-03T04:20:16;22.00;53.50
27492;DHT22;14927;51.210;6.838;2022-07-03T04:23:01;22.00;53.70
27492;DHT22;14927;51.210;6.838;2022-07-03T04:25:45;22.00;53.90
27492;DHT22;14927;51.210;6.838;2022-07-03T04:28:30;22.00;54.20
27492;DHT22;14927;51.210;6.838;2022-07-03T04:31:15;22.00;54.40
27492;DHT22;14927;51.210;6.838;2022-07-03T04:33:59;22.00;54.50
27492;DHT22;14927;51.210;6.838;2022-07-03T04:36:44;22.00;54.70
27492;DHT22;14927;51.210;6.838;2022-07-03T04:39:28;22.00;54.80
27492;DHT22;14927;51.210;6.838;2022-07-03T04:42:13;22.00;54.90
27492;DHT22;14927;51.210;6.838;2022-07-03T04:44:58;22.00;54.90
27492;DHT22;14927;51.210;6.838;2022-07-03T04:47:42;22.10;54.90
27492;DHT22;14927;51.210;6.838;2022-07-03T04:50:27;22.10;55.00
27492;DHT22;14927;51.210;6.838;2022-07-03T04:53:12;22.10;55.00
27492;DHT22;14927;51.210;6.838;2022-07-03T04:55:58;22.10;55.00
27492;DHT22;14927;51.210;6.838;2022-07-03T04:58:42;22.20;55.10
27492;DHT22;14927;51.210;6.838;2022-07-03T05:01:27;22.20;55.20
27492;DHT22;14927;51.210;6.838;2022-07-03T05:04:11;22.20;55.20
27492;DHT22;14927;51.210;6.838;2022-07-03T05:06:56;22.30;55.20
27492;DHT22;14927;51.210;6.838;2022-07-03T05:09:41;22.30;55.20
27492;DHT22;14927;51.210;6.838;2022-07-03T05:12:25;22.30;55.20
27492;DHT22;14927;51.210;6.838;2022-07-03T05:15:10;22.40;55.10
27492;DHT22;14927;51.210;6.838;2022-07-03T05:17:55;22.40;55.10
27492;DHT22;14927;51.210;6.838;2022-07-03T05:20:39;22.40;55.10
27492;DHT22;14927;51.210;6.838;2022-07-03T05:23:26;22.50;55.10
27492;DHT22;14927;51.210;6.838;2022-07-03T05:26:11;22.50;55.00
27492;DHT22;14927;51.210;6.838;2022-07-03T05:28:55;22.50;54.80
27492;DHT22;14927;51.210;6.838;2022-07-03T05:31:40;22.60;54.60
27492;DHT22;14927;51.210;6.838;2022-07-03T05:34:25;22.60;54.50
27492;DHT22;14927;51.210;6.838;2022-07-03T05:37:09;22.70;54.30
27492;DHT22;14927;51.210;6.838;2022-07-03T05:39:54;22.70;54.30
27492;DHT22;14927;51.210;6.838;2022-07-03T05:42:38;22.80;54.20
27492;DHT22;14927;51.210;6.838;2022-07-03T05:45:23;22.80;54.00
27492;DHT22;14927;51.210;6.838;2022-07-03T05:48:08;22.90;54.20
27492;DHT22;14927;51.210;6.838;2022-07-03T05:50:53;22.90;54.10
27492;DHT22;14927;51.210;6.838;2022-07-03T05:53:38;23.00;54.10
27492;DHT22;14927;51.210;6.838;2022-07-03T05:56:22;23.00;54.00
27492;DHT22;14927;51.210;6.838;2022-07-03T05:59:07;23.10;53.90
27492;DHT22;14927;51.210;6.838;2022-07-03T06:01:51;23.10;54.50
27492;DHT22;14927;51.210;6.838;2022-07-03T06:04:36;23.10;53.60
27492;DHT22;14927;51.210;6.838;2022-07-03T06:07:21;23.20;53.40
27492;DHT22;14927;51.210;6.838;2022-07-03T06:10:06;23.30;53.40
27492;DHT22;14927;51.210;6.838;2022-07-03T06:12:52;23.30;53.10
27492;DHT22;14927;51.210;6.838;2022-07-03T06:15:36;23.40;52.90
27492;DHT22;14927;51.210;6.838;2022-07-03T06:18:21;23.40;52.80
27492;DHT22;14927;51.210;6.838;2022-07-03T06:21:05;23.40;52.70
27492;DHT22;14927;51.210;6.838;2022-07-03T06:23:50;23.50;52.70
27492;DHT22;14927;51.210;6.838;2022-07-03T06:26:35;23.60;52.60
27492;DHT22;14927;51.210;6.838;2022-07-03T06:29:19;23.60;52.50
27492;DHT22;14927;51.210;6.838;2022-07-03T06:32:04;23.70;51.80
27492;DHT22;14927;51.210;6.838;2022-07-03T06:34:49;23.70;50.60
27492;DHT22;14927;51.210;6.838;2022-07-03T06:37:33;23.80;49.70
27492;DHT22;14927;51.210;6.838;2022-07-03T06:40:18;23.80;49.40
27492;DHT22;14927;51.210;6.838;2022-07-03T06:43:02;23.90;49.00
27492;DHT22;14927;51.210;6.838;2022-07-03T06:45:47;23.90;48.50
27492;DHT22;14927;51.210;6.838;2022-07-03T06:48:32;24.00;48.00
27492;DHT22;14927;51.210;6.838;2022-07-03T06:51:17;24.10;47.70
27492;DHT22;14927;51.210;6.838;2022-07-03T06:54:02;24.10;47.20
27492;DHT22;14927;51.210;6.838;2022-07-03T06:56:46;24.20;47.00
27492;DHT22;14927;51.210;6.838;2022-07-03T06:59:31;24.20;46.90
27492;DHT22;14927;51.210;6.838;2022-07-03T07:02:16;24.30;46.40
27492;DHT22;14927;51.210;6.838;2022-07-03T07:05:00;24.30;46.20
27492;DHT22;14927;51.210;6.838;2022-07-03T07:07:45;24.40;46.40
27492;DHT22;14927;51.210;6.838;2022-07-03T07:10:30;24.40;46.10
27492;DHT22;14927;51.210;6.838;2022-07-03T07:13:14;24.50;45.90
27492;DHT22;14927;51.210;6.838;2022-07-03T07:15:59;24.50;45.80
27492;DHT22;14927;51.210;6.838;2022-07-03T07:18:44;24.60;45.70
27492;DHT22;14927;51.210;6.838;2022-07-03T07:21:29;24.70;45.50
27492;DHT22;14927;51.210;6.838;2022-07-03T07:24:14;24.70;45.30
27492;DHT22;14927;51.210;6.838;2022-07-03T07:26:58;24.80;45.10
27492;DHT22;14927;51.210;6.838;2022-07-03T07:29:45;24.80;45.00
27492;DHT22;14927;51.210;6.838;2022-07-03T07:32:29;24.80;44.70
27492;DHT22;14927;51.210;6.838;2022-07-03T07:35:14;24.90;44.80
27492;DHT22;14927;51.210;6.838;2022-07-03T07:37:59;25.00;44.60
27492;DHT22;14927;51.210;6.838;2022-07-03T07:40:43;25.00;44.60
27492;DHT22;14927;51.210;6.838;2022-07-03T07:43:28;25.10;44.40
27492;DHT22;14927;51.210;6.838;2022-07-03T07:46:13;25.10;44.20
27492;DHT22;14927;51.210;6.838;2022-07-03T07:48:58;25.20;44.40
27492;DHT22;14927;51.210;6.838;2022-07-03T07:51:46;25.20;44.80
27492;DHT22;14927;51.210;6.838;2022-07-03T07:54:31;25.20;45.00
27492;DHT22;14927;51.210;6.838;2022-07-03T07:57:16;25.30;45.10
27492;DHT22;14927;51.210;6.838;2022-07-03T08:00:07;25.30;44.80
27492;DHT22;14927;51.210;6.838;2022-07-03T08:02:55;25.40;44.40
27492;DHT22;14927;51.210;6.838;2022-07-03T08:06:04;25.40;44.30
27492;DHT22;14927;51.210;6.838;2022-07-03T08:08:48;25.50;44.10
27492;DHT22;14927;51.210;6.838;2022-07-03T08:11:33;25.50;44.50
27492;DHT22;14927;51.210;6.838;2022-07-03T08:14:18;25.50;44.00
27492;DHT22;14927;51.210;6.838;2022-07-03T08:17:02;25.60;44.00
27492;DHT22;14927;51.210;6.838;2022-07-03T08:19:47;25.70;43.90
27492;DHT22;14927;51.210;6.838;2022-07-03T08:22:31;25.70;43.70
27492;DHT22;14927;51.210;6.838;2022-07-03T08:25:21;25.80;43.60
27492;DHT22;14927;51.210;6.838;2022-07-03T08:28:05;25.80;43.40
27492;DHT22;14927;51.210;6.838;2022-07-03T08:30:50;25.90;42.90
27492;DHT22;14927;51.210;6.838;2022-07-03T08:33:35;25.90;42.50
27492;DHT22;14927;51.210;6.838;2022-07-03T08:36:19;26.00;42.50
27492;DHT22;14927;51.210;6.838;2022-07-03T08:39:04;26.00;42.40
27492;DHT22;14927;51.210;6.838;2022-07-03T08:41:49;26.00;42.10
27492;DHT22;14927;51.210;6.838;2022-07-03T08:44:36;26.10;42.10
27492;DHT22;14927;51.210;6.838;2022-07-03T08:47:21;26.10;42.10
27492;DHT22;14927;51.210;6.838;2022-07-03T08:50:07;26.20;42.10
27492;DHT22;14927;51.210;6.838;2022-07-03T08:52:52;26.20;42.10
27492;DHT22;14927;51.210;6.838;2022-07-03T08:55:37;26.30;41.90
27492;DHT22;14927;51.210;6.838;2022-07-03T08:58:23;26.30;41.60
27492;DHT22;14927;51.210;6.838;2022-07-03T09:01:08;26.30;41.40
27492;DHT22;14927;51.210;6.838;2022-07-03T09:03:53;26.40;41.60
27492;DHT22;14927;51.210;6.838;2022-07-03T09:06:44;26.40;41.50
27492;DHT22;14927;51.210;6.838;2022-07-03T09:09:32;26.50;40.90
27492;DHT22;14927;51.210;6.838;2022-07-03T09:12:18;26.50;40.70
27492;DHT22;14927;51.210;6.838;2022-07-03T09:15:05;26.50;40.90
27492;DHT22;14927;51.210;6.838;2022-07-03T09:18:01;26.60;41.30
27492;DHT22;14927;51.210;6.838;2022-07-03T09:21:01;26.60;40.80
27492;DHT22;14927;51.210;6.838;2022-07-03T09:23:47;26.70;40.70
27492;DHT22;14927;51.210;6.838;2022-07-03T09:26:32;26.70;40.80
27492;DHT22;14927;51.210;6.838;2022-07-03T09:29:17;26.80;40.70
27492;DHT22;14927;51.210;6.838;2022-07-03T09:32:02;26.80;40.70
27492;DHT22;14927;51.210;6.838;2022-07-03T09:34:46;26.80;40.70
27492;DHT22;14927;51.210;6.838;2022-07-03T09:37:31;26.90;40.70
27492;DHT22;14927;51.210;6.838;2022-07-03T09:40:17;26.90;40.70
27492;DHT22;14927;51.210;6.838;2022-07-03T09:43:04;27.00;40.80
27492;DHT22;14927;51.210;6.838;2022-07-03T09:46:00;27.00;40.70
27492;DHT22;14927;51.210;6.838;2022-07-03T09:48:45;27.00;40.30
27492;DHT22;14927;51.210;6.838;2022-07-03T09:51:30;27.10;40.30
27492;DHT22;14927;51.210;6.838;2022-07-03T09:54:25;27.10;40.20
27492;DHT22;14927;51.210;6.838;2022-07-03T09:57:18;27.10;40.20
27492;DHT22;14927;51.210;6.838;2022-07-03T10:00:25;27.20;40.10
27492;DHT22;14927;51.210;6.838;2022-07-03T10:03:11;27.30;40.20
27492;DHT22;14927;51.210;6.838;2022-07-03T10:06:03;27.30;40.10
27492;DHT22;14927;51.210;6.838;2022-07-03T10:08:47;27.40;40.00
27492;DHT22;14927;51.210;6.838;2022-07-03T10:11:32;27.40;40.20
27492;DHT22;14927;51.210;6.838;2022-07-03T10:14:19;27.50;40.30
27492;DHT22;14927;51.210;6.838;2022-07-03T10:17:06;27.50;40.20
27492;DHT22;14927;51.210;6.838;2022-07-03T10:19:51;27.60;39.70
27492;DHT22;14927;51.210;6.838;2022-07-03T10:22:36;27.60;39.70
27492;DHT22;14927;51.210;6.838;2022-07-03T10:25:23;27.60;39.30
27492;DHT22;14927;51.210;6.838;2022-07-03T10:28:11;27.70;39.30
27492;DHT22;14927;51.210;6.838;2022-07-03T10:30:57;27.80;39.50
27492;DHT22;14927;51.210;6.838;2022-07-03T10:33:42;27.80;39.30
27492;DHT22;14927;51.210;6.838;2022-07-03T10:36:28;27.80;39.40
27492;DHT22;14927;51.210;6.838;2022-07-03T10:42:40;27.90;38.90
27492;DHT22;14927;51.210;6.838;2022-07-03T10:46:09;28.00;38.70
27492;DHT22;14927;51.210;6.838;2022-07-03T10:49:17;28.00;38.30
27492;DHT22;14927;51.210;6.838;2022-07-03T10:52:04;28.00;38.60
27492;DHT22;14927;51.210;6.838;2022-07-03T10:54:50;28.10;38.70
27492;DHT22;14927;51.210;6.838;2022-07-03T10:57:37;28.10;38.80
27492;DHT22;14927;51.210;6.838;2022-07-03T11:00:22;28.20;39.10
27492;DHT22;14927;51.210;6.838;2022-07-03T11:03:08;28.20;39.00
27492;DHT22;14927;51.210;6.838;2022-07-03T11:05:52;28.30;39.30
27492;DHT22;14927;51.210;6.838;2022-07-03T11:09:03;28.30;38.90
27492;DHT22;14927;51.210;6.838;2022-07-03T11:11:48;28.30;38.90
27492;DHT22;14927;51.210;6.838;2022-07-03T11:14:38;28.40;38.20
27492;DHT22;14927;51.210;6.838;2022-07-03T11:17:23;28.50;37.80
27492;DHT22;14927;51.210;6.838;2022-07-03T11:20:08;28.50;37.90
27492;DHT22;14927;51.210;6.838;2022-07-03T11:28:59;28.70;37.70
27492;DHT22;14927;51.210;6.838;2022-07-03T11:31:44;28.80;37.30
27492;DHT22;14927;51.210;6.838;2022-07-03T11:34:42;28.80;37.70
27492;DHT22;14927;51.210;6.838;2022-07-03T11:37:47;28.90;37.60
27492;DHT22;14927;51.210;6.838;2022-07-03T11:40:36;28.90;37.10
27492;DHT22;14927;51.210;6.838;2022-07-03T11:43:23;29.00;36.80
27492;DHT22;14927;51.210;6.838;2022-07-03T11:46:08;29.10;37.20
27492;DHT22;14927;51.210;6.838;2022-07-03T11:49:13;29.20;36.70
27492;DHT22;14927;51.210;6.838;2022-07-03T11:52:00;29.30;36.60
27492;DHT22;14927;51.210;6.838;2022-07-03T11:54:51;29.50;37.20
27492;DHT22;14927;51.210;6.838;2022-07-03T11:57:36;29.60;36.60
27492;DHT22;14927;51.210;6.838;2022-07-03T12:00:20;29.70;35.90
27492;DHT22;14927;51.210;6.838;2022-07-03T12:03:05;29.90;35.60
27492;DHT22;14927;51.210;6.838;2022-07-03T12:05:58;30.00;35.20
27492;DHT22;14927;51.210;6.838;2022-07-03T12:08:47;30.10;34.40
27492;DHT22;14927;51.210;6.838;2022-07-03T12:11:31;30.30;34.50
27492;DHT22;14927;51.210;6.838;2022-07-03T12:14:16;30.50;33.90
27492;DHT22;14927;51.210;6.838;2022-07-03T12:17:00;30.60;34.40
27492;DHT22;14927;51.210;6.838;2022-07-03T12:19:53;30.70;34.10
27492;DHT22;14927;51.210;6.838;2022-07-03T12:22:39;30.80;34.00
27492;DHT22;14927;51.210;6.838;2022-07-03T12:25:29;31.00;34.00
27492;DHT22;14927;51.210;6.838;2022-07-03T12:28:14;31.10;33.10
27492;DHT22;14927;51.210;6.838;2022-07-03T12:30:58;31.30;33.00
27492;DHT22;14927;51.210;6.838;2022-07-03T12:33:43;31.40;32.70
27492;DHT22;14927;51.210;6.838;2022-07-03T12:36:28;31.50;32.00
27492;DHT22;14927;51.210;6.838;2022-07-03T12:39:13;31.60;32.00
27492;DHT22;14927;51.210;6.838;2022-07-03T12:42:00;31.80;31.50
27492;DHT22;14927;51.210;6.838;2022-07-03T12:44:58;31.80;31.20
27492;DHT22;14927;51.210;6.838;2022-07-03T12:47:44;31.90;31.10
27492;DHT22;14927;51.210;6.838;2022-07-03T12:53:32;32.10;31.20
27492;DHT22;14927;51.210;6.838;2022-07-03T12:56:20;32.20;30.00
27492;DHT22;14927;51.210;6.838;2022-07-03T12:59:05;32.30;30.10
27492;DHT22;14927;51.210;6.838;2022-07-03T13:02:05;32.30;30.00
27492;DHT22;14927;51.210;6.838;2022-07-03T13:04:51;32.40;30.00
27492;DHT22;14927;51.210;6.838;2022-07-03T13:07:39;32.40;30.00
27492;DHT22;14927;51.210;6.838;2022-07-03T13:10:25;32.40;30.00
27492;DHT22;14927;51.210;6.838;2022-07-03T13:13:10;32.40;30.10
27492;DHT22;14927;51.210;6.838;2022-07-03T13:15:55;32.40;29.90
27492;DHT22;14927;51.210;6.838;2022-07-03T13:18:59;32.40;29.90
27492;DHT22;14927;51.210;6.838;2022-07-03T13:21:45;32.40;30.10
27492;DHT22;14927;51.210;6.838;2022-07-03T13:24:30;32.50;29.80
27492;DHT22;14927;51.210;6.838;2022-07-03T13:27:15;32.50;29.90
27492;DHT22;14927;51.210;6.838;2022-07-03T13:29:59;32.60;29.50
27492;DHT22;14927;51.210;6.838;2022-07-03T13:32:45;32.60;29.70
27492;DHT22;14927;51.210;6.838;2022-07-03T13:35:30;32.70;29.90
27492;DHT22;14927;51.210;6.838;2022-07-03T13:38:15;32.80;29.40
27492;DHT22;14927;51.210;6.838;2022-07-03T13:40:59;32.80;29.20
27492;DHT22;14927;51.210;6.838;2022-07-03T13:43:44;32.90;29.20
27492;DHT22;14927;51.210;6.838;2022-07-03T13:46:30;32.90;29.10
27492;DHT22;14927;51.210;6.838;2022-07-03T13:49:14;32.90;29.00
27492;DHT22;14927;51.210;6.838;2022-07-03T13:51:59;33.00;29.20
27492;DHT22;14927;51.210;6.838;2022-07-03T13:54:44;33.00;29.20
27492;DHT22;14927;51.210;6.838;2022-07-03T13:57:33;33.20;28.90
27492;DHT22;14927;51.210;6.838;2022-07-03T14:00:18;33.30;28.60
27492;DHT22;14927;51.210;6.838;2022-07-03T14:03:09;33.40;28.80
27492;DHT22;14927;51.210;6.838;2022-07-03T14:05:53;33.60;28.40
27492;DHT22;14927;51.210;6.838;2022-07-03T14:08:38;33.80;28.40
27492;DHT22;14927;51.210;6.838;2022-07-03T14:11:23;33.80;28.20
27492;DHT22;14927;51.210;6.838;2022-07-03T14:14:08;33.90;27.90
27492;DHT22;14927;51.210;6.838;2022-07-03T14:16:53;33.80;27.70
27492;DHT22;14927;51.210;6.838;2022-07-03T14:19:37;33.80;27.80
27492;DHT22;14927;51.210;6.838;2022-07-03T14:22:22;33.80;27.70
27492;DHT22;14927;51.210;6.838;2022-07-03T14:25:07;33.70;27.70
27492;DHT22;14927;51.210;6.838;2022-07-03T14:27:53;33.50;27.70
27492;DHT22;14927;51.210;6.838;2022-07-03T14:30:57;33.40;28.20
27492;DHT22;14927;51.210;6.838;2022-07-03T14:34:00;33.30;28.50
27492;DHT22;14927;51.210;6.838;2022-07-03T14:36:45;33.20;28.70
27492;DHT22;14927;51.210;6.838;2022-07-03T14:39:29;33.10;28.90
27492;DHT22;14927;51.210;6.838;2022-07-03T14:42:16;33.00;28.90
27492;DHT22;14927;51.210;6.838;2022-07-03T14:45:05;33.00;28.60
27492;DHT22;14927;51.210;6.838;2022-07-03T14:47:51;32.90;28.80
27492;DHT22;14927;51.210;6.838;2022-07-03T14:50:40;32.80;29.00
27492;DHT22;14927;51.210;6.838;2022-07-03T14:53:25;32.70;29.40
27492;DHT22;14927;51.210;6.838;2022-07-03T14:56:17;32.70;29.20
27492;DHT22;14927;51.210;6.838;2022-07-03T14:59:07;32.60;28.80
27492;DHT22;14927;51.210;6.838;2022-07-03T15:01:56;32.50;29.10
27492;DHT22;14927;51.210;6.838;2022-07-03T15:08:05;32.40;29.30
27492;DHT22;14927;51.210;6.838;2022-07-03T15:11:07;32.40;29.20
27492;DHT22;14927;51.210;6.838;2022-07-03T15:13:55;32.20;29.00
27492;DHT22;14927;51.210;6.838;2022-07-03T15:16:40;32.10;28.90
27492;DHT22;14927;51.210;6.838;2022-07-03T15:19:28;32.10;28.90
27492;DHT22;14927;51.210;6.838;2022-07-03T15:22:15;32.00;29.00
27492;DHT22;14927;51.210;6.838;2022-07-03T15:25:01;31.80;28.80
27492;DHT22;14927;51.210;6.838;2022-07-03T15:27:50;31.70;29.10
27492;DHT22;14927;51.210;6.838;2022-07-03T15:30:46;31.70;29.50
27492;DHT22;14927;51.210;6.838;2022-07-03T15:33:34;31.60;29.20
27492;DHT22;14927;51.210;6.838;2022-07-03T15:36:18;31.50;29.10
27492;DHT22;14927;51.210;6.838;2022-07-03T15:39:07;31.40;29.30
27492;DHT22;14927;51.210;6.838;2022-07-03T15:42:22;31.40;29.40
27492;DHT22;14927;51.210;6.838;2022-07-03T15:48:58;31.30;29.70
27492;DHT22;14927;51.210;6.838;2022-07-03T15:52:09;31.20;29.70
27492;DHT22;14927;51.210;6.838;2022-07-03T15:55:02;31.10;29.90
27492;DHT22;14927;51.210;6.838;2022-07-03T15:57:53;31.10;30.00
27492;DHT22;14927;51.210;6.838;2022-07-03T16:00:44;31.00;30.00
27492;DHT22;14927;51.210;6.838;2022-07-03T16:06:52;30.90;30.60
27492;DHT22;14927;51.210;6.838;2022-07-03T16:09:39;30.90;30.40
27492;DHT22;14927;51.210;6.838;2022-07-03T16:12:26;30.80;31.40
27492;DHT22;14927;51.210;6.838;2022-07-03T16:15:12;30.80;30.70
27492;DHT22;14927;51.210;6.838;2022-07-03T16:17:57;30.80;30.50
27492;DHT22;14927;51.210;6.838;2022-07-03T16:20:42;30.70;30.40
27492;DHT22;14927;51.210;6.838;2022-07-03T16:23:29;30.70;30.40
27492;DHT22;14927;51.210;6.838;2022-07-03T16:26:13;30.70;30.40
27492;DHT22;14927;51.210;6.838;2022-07-03T16:29:01;30.60;30.70
27492;DHT22;14927;51.210;6.838;2022-07-03T16:31:49;30.50;30.60
27492;DHT22;14927;51.210;6.838;2022-07-03T16:38:18;30.40;31.20
27492;DHT22;14927;51.210;6.838;2022-07-03T16:41:08;30.50;30.90
27492;DHT22;14927;51.210;6.838;2022-07-03T16:43:57;30.50;31.10
27492;DHT22;14927;51.210;6.838;2022-07-03T16:46:44;30.60;30.90
27492;DHT22;14927;51.210;6.838;2022-07-03T16:49:35;30.70;30.20
27492;DHT22;14927;51.210;6.838;2022-07-03T16:52:21;30.70;29.80
27492;DHT22;14927;51.210;6.838;2022-07-03T16:55:07;30.70;29.80
27492;DHT22;14927;51.210;6.838;2022-07-03T16:57:56;30.70;29.90
27492;DHT22;14927;51.210;6.838;2022-07-03T17:00:41;30.60;30.00
27492;DHT22;14927;51.210;6.838;2022-07-03T17:03:27;30.60;29.80
27492;DHT22;14927;51.210;6.838;2022-07-03T17:06:12;30.50;29.70
27492;DHT22;14927;51.210;6.838;2022-07-03T17:08:57;30.40;29.30
27492;DHT22;14927;51.210;6.838;2022-07-03T17:11:43;30.30;29.20
27492;DHT22;14927;51.210;6.838;2022-07-03T17:14:27;30.20;29.10
27492;DHT22;14927;51.210;6.838;2022-07-03T17:17:14;30.20;29.10
27492;DHT22;14927;51.210;6.838;2022-07-03T17:20:04;30.00;29.20
27492;DHT22;14927;51.210;6.838;2022-07-03T17:23:34;30.10;29.30
27492;DHT22;14927;51.210;6.838;2022-07-03T17:26:01;30.20;29.10
27492;DHT22;14927;51.210;6.838;2022-07-03T17:28:49;30.30;29.80
27492;DHT22;14927;51.210;6.838;2022-07-03T17:31:42;30.40;29.00
27492;DHT22;14927;51.210;6.838;2022-07-03T17:34:29;30.50;28.70
27492;DHT22;14927;51.210;6.838;2022-07-03T17:37:15;30.60;28.60
27492;DHT22;14927;51.210;6.838;2022-07-03T17:40:01;30.80;28.40
27492;DHT22;14927;51.210;6.838;2022-07-03T17:42:45;30.80;28.20
27492;DHT22;14927;51.210;6.838;2022-07-03T17:45:30;30.90;28.20
27492;DHT22;14927;51.210;6.838;2022-07-03T17:48:15;31.00;28.40
27492;DHT22;14927;51.210;6.838;2022-07-03T17:51:00;31.10;28.40
27492;DHT22;14927;51.210;6.838;2022-07-03T17:53:47;31.20;28.90
27492;DHT22;14927;51.210;6.838;2022-07-03T17:56:33;31.20;28.50
27492;DHT22;14927;51.210;6.838;2022-07-03T17:59:19;31.20;28.40
27492;DHT22;14927;51.210;6.838;2022-07-03T18:02:05;31.30;28.50
27492;DHT22;14927;51.210;6.838;2022-07-03T18:04:49;31.40;28.60
27492;DHT22;14927;51.210;6.838;2022-07-03T18:11:02;31.60;28.30
27492;DHT22;14927;51.210;6.838;2022-07-03T18:14:34;31.80;28.50
27492;DHT22;14927;51.210;6.838;2022-07-03T18:17:30;32.00;28.10
27492;DHT22;14927;51.210;6.838;2022-07-03T18:20:17;32.10;27.80
27492;DHT22;14927;51.210;6.838;2022-07-03T18:23:04;32.20;28.00
27492;DHT22;14927;51.210;6.838;2022-07-03T18:25:49;32.20;28.00
27492;DHT22;14927;51.210;6.838;2022-07-03T18:28:36;32.20;27.90
27492;DHT22;14927;51.210;6.838;2022-07-03T18:31:21;32.10;27.90
27492;DHT22;14927;51.210;6.838;2022-07-03T18:34:06;32.10;27.80
27492;DHT22;14927;51.210;6.838;2022-07-03T18:36:53;31.90;27.80
27492;DHT22;14927;51.210;6.838;2022-07-03T18:39:38;31.80;28.00
27492;DHT22;14927;51.210;6.838;2022-07-03T18:42:23;31.70;28.30